sensor_id;sensor_type;location;lat;lon;timestamp;temperature;humidity
48019;DHT22;33786;48.690;9.562;2023-05-24T00:02:07;13.50;99.90
48019;DHT22;33786;48.690;9.562;2023-05-24T00:04:33;13.50;99.90
48019;DHT22;33786;48.690;9.562;2023-05-24T00:07:00;13.50;99.90
48019;DHT22;33786;48.690;9.562;2023-05-24T00:09:30;13.50;99.90
48019;DHT22;33786;48.690;9.562;2023-05-24T00:11:57;13.40;99.90
48019;DHT22;33786;48.690;9.562;2023-05-24T00:14:24;13.40;99.90
48019;DHT22;33786;48.690;9.562;2023-05-24T00:16:51;13.40;99.90
48019;DHT22;33786;48.690;9.562;2023-05-24T00:19:17;13.40;99.90
48019;DHT22;33786;48.690;9.562;2023-05-24T00:21:47;13.40;99.90
48019;DHT22;33786;48.690;9.562;2023-05-24T00:24:14;13.20;99.90
48019;DHT22;33786;48.690;9.562;2023-05-24T00:26:43;13.30;99.90
48019;DHT22;33786;48.690;9.562;2023-05-24T00:29:10;13.20;99.90
48019;DHT22;33786;48.690;9.562;2023-05-24T00:31:37;13.10;99.90
48019;DHT22;33786;48.690;9.562;2023-05-24T00:34:03;13.00;99.90
48019;DHT22;33786;48.690;9.562;2023-05-24T00:36:31;13.10;99.90
48019;DHT22;33786;48.690;9.562;2023-05-24T00:38:58;13.10;99.90
48019;DHT22;33786;48.690;9.562;2023-05-24T00:41:25;13.10;99.90
48019;DHT22;33786;48.690;9.562;2023-05-24T00:43:52;13.10;99.90
48019;DHT22;33786;48.690;9.562;2023-05-24T00:46:20;13.10;99.90
48019;DHT22;33786;48.690;9.562;2023-05-24T00:48:48;13.10;99.90
48019;DHT22;33786;48.690;9.562;2023-05-24T00:51:15;13.00;99.90
48019;DHT22;33786;48.690;9.562;2023-05-24T00:53:43;13.00;99.90
48019;DHT22;33786;48.690;9.562;2023-05-24T00:56:13;13.00;99.90
48019;DHT22;33786;48.690;9.562;2023-05-24T00:58:40;13.00;99.90
48019;DHT22;33786;48.690;9.562;2023-05-24T01:01:07;13.00;99.90
48019;DHT22;33786;48.690;9.562;2023-05-24T01:03:34;12.90;99.90
48019;DHT22;33786;48.690;9.562;2023-05-24T01:06:02;13.00;99.90
48019;DHT22;33786;48.690;9.562;2023-05-24T01:10:58;13.00;99.90
48019;DHT22;33786;48.690;9.562;2023-05-24T01:16:19;13.00;99.90
48019;DHT22;33786;48.690;9.562;2023-05-24T01:18:55;13.00;99.90
48019;DHT22;33786;48.690;9.562;2023-05-24T01:24:24;12.80;99.90
48019;DHT22;33786;48.690;9.562;2023-05-24T01:27:17;13.00;99.90
48019;DHT22;33786;48.690;9.562;2023-05-24T01:29:42;13.00;99.90
48019;DHT22;33786;48.690;9.562;2023-05-24T01:32:12;13.10;99.90
48019;DHT22;33786;48.690;9.562;2023-05-24T01:34:39;13.10;99.90
48019;DHT22;33786;48.690;9.562;2023-05-24T01:37:09;13.10;99.90
48019;DHT22;33786;48.690;9.562;2023-05-24T01:39:35;13.10;99.90
48019;DHT22;33786;48.690;9.562;2023-05-24T01:42:06;13.10;99.90
48019;DHT22;33786;48.690;9.562;2023-05-24T01:44:47;13.10;99.90
48019;DHT22;33786;48.690;9.562;2023-05-24T01:49:50;13.00;99.90
48019;DHT22;33786;48.690;9.562;2023-05-24T01:52:21;12.90;99.90
48019;DHT22;33786;48.690;9.562;2023-05-24T01:54:50;12.80;99.90
48019;DHT22;33786;48.690;9.562;2023-05-24T01:57:18;12.80;99.90
48019;DHT22;33786;48.690;9.562;2023-05-24T01:59:46;12.80;99.90
48019;DHT22;33786;48.690;9.562;2023-05-24T02:02:13;12.70;99.90
48019;DHT22;33786;48.690;9.562;2023-05-24T02:04:40;12.70;99.90
48019;DHT22;33786;48.690;9.562;2023-05-24T02:07:07;12.60;99.90
48019;DHT22;33786;48.690;9.562;2023-05-24T02:09:34;12.60;99.90
48019;DHT22;33786;48.690;9.562;2023-05-24T02:12:00;12.50;99.90
48019;DHT22;33786;48.690;9.562;2023-05-24T02:14:27;12.50;99.90
48019;DHT22;33786;48.690;9.562;2023-05-24T02:16:54;12.50;99.90
48019;DHT22;33786;48.690;9.562;2023-05-24T02:19:24;12.40;99.90
48019;DHT22;33786;48.690;9.562;2023-05-24T02:21:54;12.40;99.90
48019;DHT22;33786;48.690;9.562;2023-05-24T02:24:21;12.30;99.90
48019;DHT22;33786;48.690;9.562;2023-05-24T02:26:48;12.30;99.90
48019;DHT22;33786;48.690;9.562;2023-05-24T02:29:14;12.20;99.90
48019;DHT22;33786;48.690;9.562;2023-05-24T02:31:43;12.30;99.90
48019;DHT22;33786;48.690;9.562;2023-05-24T02:34:10;12.20;99.90
48019;DHT22;33786;48.690;9.562;2023-05-24T02:36:36;12.20;99.90
48019;DHT22;33786;48.690;9.562;2023-05-24T02:39:03;12.20;99.90
48019;DHT22;33786;48.690;9.562;2023-05-24T02:41:30;12.20;99.90
48019;DHT22;33786;48.690;9.562;2023-05-24T02:43:57;12.10;99.90
48019;DHT22;33786;48.690;9.562;2023-05-24T02:46:23;12.10;99.90
48019;DHT22;33786;48.690;9.562;2023-05-24T02:48:50;12.10;99.90
48019;DHT22;33786;48.690;9.562;2023-05-24T02:51:17;12.00;99.90
48019;DHT22;33786;48.690;9.562;2023-05-24T02:53:44;11.90;99.90
48019;DHT22;33786;48.690;9.562;2023-05-24T02:56:11;11.90;99.90
48019;DHT22;33786;48.690;9.562;2023-05-24T02:58:39;11.90;99.90
48019;DHT22;33786;48.690;9.562;2023-05-24T03:01:06;11.80;99.90
48019;DHT22;33786;48.690;9.562;2023-05-24T03:03:34;11.70;99.90
48019;DHT22;33786;48.690;9.562;2023-05-24T03:06:01;11.70;99.90
48019;DHT22;33786;48.690;9.562;2023-05-24T03:08:27;11.70;99.90
48019;DHT22;33786;48.690;9.562;2023-05-24T03:10:54;11.60;99.90
48019;DHT22;33786;48.690;9.562;2023-05-24T03:13:21;11.60;99.90
48019;DHT22;33786;48.690;9.562;2023-05-24T03:15:47;11.60;99.90
48019;DHT22;33786;48.690;9.562;2023-05-24T03:18:14;11.60;99.90
48019;DHT22;33786;48.690;9.562;2023-05-24T03:20:41;11.70;99.90
48019;DHT22;33786;48.690;9.562;2023-05-24T03:23:08;11.70;99.90
48019;DHT22;33786;48.690;9.562;2023-05-24T03:25:35;11.70;99.90
48019;DHT22;33786;48.690;9.562;2023-05-24T03:28:03;11.70;99.90
48019;DHT22;33786;48.690;9.562;2023-05-24T03:30:29;11.70;99.90
48019;DHT22;33786;48.690;9.562;2023-05-24T03:32:56;11.60;99.90
48019;DHT22;33786;48.690;9.562;2023-05-24T03:35:23;11.60;99.90
48019;DHT22;33786;48.690;9.562;2023-05-24T03:37:50;11.60;99.90
48019;DHT22;33786;48.690;9.562;2023-05-24T03:40:16;11.70;99.90
48019;DHT22;33786;48.690;9.562;2023-05-24T03:42:43;11.60;99.90
48019;DHT22;33786;48.690;9.562;2023-05-24T03:45:10;11.60;99.90
48019;DHT22;33786;48.690;9.562;2023-05-24T03:47:37;11.60;99.90
48019;DHT22;33786;48.690;9.562;2023-05-24T03:50:03;11.50;99.90
48019;DHT22;33786;48.690;9.562;2023-05-24T03:52:30;11.50;99.90
48019;DHT22;33786;48.690;9.562;2023-05-24T03:54:57;11.60;99.90
48019;DHT22;33786;48.690;9.562;2023-05-24T03:57:24;11.70;99.90
48019;DHT22;33786;48.690;9.562;2023-05-24T03:59:50;11.70;99.90
48019;DHT22;33786;48.690;9.562;2023-05-24T04:02:17;11.70;99.90
48019;DHT22;33786;48.690;9.562;2023-05-24T04:04:44;11.60;99.90
48019;DHT22;33786;48.690;9.562;2023-05-24T04:07:11;11.70;99.90
48019;DHT22;33786;48.690;9.562;2023-05-24T04:09:39;11.70;99.90
48019;DHT22;33786;48.690;9.562;2023-05-24T04:12:05;11.80;99.90
48019;DHT22;33786;48.690;9.562;2023-05-24T04:14:32;11.80;99.90
48019;DHT22;33786;48.690;9.562;2023-05-24T04:16:59;11.90;99.90
48019;DHT22;33786;48.690;9.562;2023-05-24T04:19:29;11.80;99.90
48019;DHT22;33786;48.690;9.562;2023-05-24T04:21:56;11.80;99.90
48019;DHT22;33786;48.690;9.562;2023-05-24T04:24:23;11.60;99.90
48019;DHT22;33786;48.690;9.562;2023-05-24T04:26:49;11.50;99.90
48019;DHT22;33786;48.690;9.562;2023-05-24T04:29:17;11.60;99.90
48019;DHT22;33786;48.690;9.562;2023-05-24T04:31:44;11.70;99.90
48019;DHT22;33786;48.690;9.562;2023-05-24T04:34:14;11.80;99.90
48019;DHT22;33786;48.690;9.562;2023-05-24T04:36:41;11.60;99.90
48019;DHT22;33786;48.690;9.562;2023-05-24T04:39:08;11.60;99.90
48019;DHT22;33786;48.690;9.562;2023-05-24T04:41:35;11.60;99.90
48019;DHT22;33786;48.690;9.562;2023-05-24T04:44:02;11.70;99.90
48019;DHT22;33786;48.690;9.562;2023-05-24T04:46:29;11.70;99.90
48019;DHT22;33786;48.690;9.562;2023-05-24T04:48:56;11.70;99.90
48019;DHT22;33786;48.690;9.562;2023-05-24T04:51:23;11.60;99.90
48019;DHT22;33786;48.690;9.562;2023-05-24T04:53:50;11.60;99.90
48019;DHT22;33786;48.690;9.562;2023-05-24T04:56:17;11.70;99.90
48019;DHT22;33786;48.690;9.562;2023-05-24T04:58:43;11.60;99.90
48019;DHT22;33786;48.690;9.562;2023-05-24T05:01:10;11.50;99.90
48019;DHT22;33786;48.690;9.562;2023-05-24T05:03:37;11.50;99.90
48019;DHT22;33786;48.690;9.562;2023-05-24T05:06:04;11.60;99.90
48019;DHT22;33786;48.690;9.562;2023-05-24T05:08:31;11.50;99.90
48019;DHT22;33786;48.690;9.562;2023-05-24T05:10:58;11.50;99.90
48019;DHT22;33786;48.690;9.562;2023-05-24T05:13:24;11.60;99.90
48019;DHT22;33786;48.690;9.562;2023-05-24T05:15:51;11.60;99.90
48019;DHT22;33786;48.690;9.562;2023-05-24T05:18:18;11.50;99.90
48019;DHT22;33786;48.690;9.562;2023-05-24T05:20:45;11.60;99.90
48019;DHT22;33786;48.690;9.562;2023-05-24T05:23:12;11.70;99.90
48019;DHT22;33786;48.690;9.562;2023-05-24T05:25:39;11.70;99.90
48019;DHT22;33786;48.690;9.562;2023-05-24T05:28:05;11.60;99.90
48019;DHT22;33786;48.690;9.562;2023-05-24T05:30:32;11.50;99.90
48019;DHT22;33786;48.690;9.562;2023-05-24T05:32:59;11.60;99.90
48019;DHT22;33786;48.690;9.562;2023-05-24T05:35:26;11.60;99.90
48019;DHT22;33786;48.690;9.562;2023-05-24T05:37:53;11.70;99.90
48019;DHT22;33786;48.690;9.562;2023-05-24T05:40:19;11.60;99.90
48019;DHT22;33786;48.690;9.562;2023-05-24T05:42:46;11.70;99.90
48019;DHT22;33786;48.690;9.562;2023-05-24T05:45:13;11.60;99.90
48019;DHT22;33786;48.690;9.562;2023-05-24T05:47:39;11.60;99.90
48019;DHT22;33786;48.690;9.562;2023-05-24T05:50:06;11.70;99.90
48019;DHT22;33786;48.690;9.562;2023-05-24T05:52:33;11.70;99.90
48019;DHT22;33786;48.690;9.562;2023-05-24T05:55:00;11.70;99.90
48019;DHT22;33786;48.690;9.562;2023-05-24T05:57:27;11.80;99.90
48019;DHT22;33786;48.690;9.562;2023-05-24T05:59:53;11.80;99.90
48019;DHT22;33786;48.690;9.562;2023-05-24T06:02:20;11.80;99.90
48019;DHT22;33786;48.690;9.562;2023-05-24T06:04:48;11.80;99.90
48019;DHT22;33786;48.690;9.562;2023-05-24T06:07:15;12.00;99.90
48019;DHT22;33786;48.690;9.562;2023-05-24T06:09:42;12.00;99.90
48019;DHT22;33786;48.690;9.562;2023-05-24T06:12:09;12.00;99.90
48019;DHT22;33786;48.690;9.562;2023-05-24T06:14:35;11.80;99.90
48019;DHT22;33786;48.690;9.562;2023-05-24T06:17:04;11.90;99.90
48019;DHT22;33786;48.690;9.562;2023-05-24T06:19:31;11.80;99.90
48019;DHT22;33786;48.690;9.562;2023-05-24T06:21:58;11.90;99.90
48019;DHT22;33786;48.690;9.562;2023-05-24T06:24:25;12.00;99.90
48019;DHT22;33786;48.690;9.562;2023-05-24T06:26:53;12.10;99.90
48019;DHT22;33786;48.690;9.562;2023-05-24T06:29:21;12.30;99.90
48019;DHT22;33786;48.690;9.562;2023-05-24T06:31:48;12.20;99.90
48019;DHT22;33786;48.690;9.562;2023-05-24T06:34:16;12.50;99.90
48019;DHT22;33786;48.690;9.562;2023-05-24T06:36:44;12.70;99.70
48019;DHT22;33786;48.690;9.562;2023-05-24T06:39:13;12.60;99.40
48019;DHT22;33786;48.690;9.562;2023-05-24T06:41:40;12.60;99.70
48019;DHT22;33786;48.690;9.562;2023-05-24T06:44:07;12.80;99.30
48019;DHT22;33786;48.690;9.562;2023-05-24T06:46:34;12.90;99.10
48019;DHT22;33786;48.690;9.562;2023-05-24T06:49:01;13.40;98.40
48019;DHT22;33786;48.690;9.562;2023-05-24T06:51:29;13.60;98.10
48019;DHT22;33786;48.690;9.562;2023-05-24T06:53:56;13.90;97.60
48019;DHT22;33786;48.690;9.562;2023-05-24T06:56:23;13.80;97.80
48019;DHT22;33786;48.690;9.562;2023-05-24T06:58:49;13.70;98.00
48019;DHT22;33786;48.690;9.562;2023-05-24T07:01:16;13.90;97.90
48019;DHT22;33786;48.690;9.562;2023-05-24T07:03:44;13.70;98.00
48019;DHT22;33786;48.690;9.562;2023-05-24T07:06:10;13.70;97.80
48019;DHT22;33786;48.690;9.562;2023-05-24T07:08:39;13.90;97.70
48019;DHT22;33786;48.690;9.562;2023-05-24T07:11:07;14.00;97.50
48019;DHT22;33786;48.690;9.562;2023-05-24T07:13:35;13.90;97.00
48019;DHT22;33786;48.690;9.562;2023-05-24T07:16:01;13.90;97.60
48019;DHT22;33786;48.690;9.562;2023-05-24T07:18:28;13.90;97.70
48019;DHT22;33786;48.690;9.562;2023-05-24T07:20:55;13.80;97.20
48019;DHT22;33786;48.690;9.562;2023-05-24T07:23:22;13.60;97.80
48019;DHT22;33786;48.690;9.562;2023-05-24T07:25:49;13.50;98.10
48019;DHT22;33786;48.690;9.562;2023-05-24T07:28:16;13.50;98.60
48019;DHT22;33786;48.690;9.562;2023-05-24T07:30:45;13.60;98.00
48019;DHT22;33786;48.690;9.562;2023-05-24T07:33:12;13.80;97.60
48019;DHT22;33786;48.690;9.562;2023-05-24T07:35:39;14.00;98.00
48019;DHT22;33786;48.690;9.562;2023-05-24T07:38:07;14.00;97.30
48019;DHT22;33786;48.690;9.562;2023-05-24T07:40:33;13.90;97.60
48019;DHT22;33786;48.690;9.562;2023-05-24T07:43:00;13.50;97.80
48019;DHT22;33786;48.690;9.562;2023-05-24T07:45:29;13.70;98.00
48019;DHT22;33786;48.690;9.562;2023-05-24T07:47:56;13.90;97.90
48019;DHT22;33786;48.690;9.562;2023-05-24T07:50:23;14.00;97.40
48019;DHT22;33786;48.690;9.562;2023-05-24T07:52:50;13.90;97.70
48019;DHT22;33786;48.690;9.562;2023-05-24T07:55:17;13.50;97.90
48019;DHT22;33786;48.690;9.562;2023-05-24T07:57:44;13.40;98.40
48019;DHT22;33786;48.690;9.562;2023-05-24T08:00:10;13.20;98.50
48019;DHT22;33786;48.690;9.562;2023-05-24T08:02:43;13.10;98.10
48019;DHT22;33786;48.690;9.562;2023-05-24T08:05:12;13.00;97.80
48019;DHT22;33786;48.690;9.562;2023-05-24T08:07:38;12.90;98.60
48019;DHT22;33786;48.690;9.562;2023-05-24T08:10:10;12.90;98.70
48019;DHT22;33786;48.690;9.562;2023-05-24T08:12:40;13.20;99.00
48019;DHT22;33786;48.690;9.562;2023-05-24T08:15:07;13.40;98.60
48019;DHT22;33786;48.690;9.562;2023-05-24T08:17:34;13.50;98.40
48019;DHT22;33786;48.690;9.562;2023-05-24T08:20:01;13.50;97.80
48019;DHT22;33786;48.690;9.562;2023-05-24T08:22:31;13.60;97.30
48019;DHT22;33786;48.690;9.562;2023-05-24T08:24:59;13.60;97.60
48019;DHT22;33786;48.690;9.562;2023-05-24T08:27:26;13.80;97.60
48019;DHT22;33786;48.690;9.562;2023-05-24T08:29:56;14.00;97.40
48019;DHT22;33786;48.690;9.562;2023-05-24T08:32:22;13.90;96.90
48019;DHT22;33786;48.690;9.562;2023-05-24T08:34:49;14.00;97.10
48019;DHT22;33786;48.690;9.562;2023-05-24T08:37:16;14.20;96.90
48019;DHT22;33786;48.690;9.562;2023-05-24T08:39:46;14.20;97.00
48019;DHT22;33786;48.690;9.562;2023-05-24T08:42:13;14.10;97.40
48019;DHT22;33786;48.690;9.562;2023-05-24T08:44:45;14.10;96.80
48019;DHT22;33786;48.690;9.562;2023-05-24T08:47:12;14.20;97.00
48019;DHT22;33786;48.690;9.562;2023-05-24T08:49:40;14.10;96.80
48019;DHT22;33786;48.690;9.562;2023-05-24T08:52:06;13.90;97.20
48019;DHT22;33786;48.690;9.562;2023-05-24T08:54:37;13.90;97.30
48019;DHT22;33786;48.690;9.562;2023-05-24T08:57:04;14.10;97.40
48019;DHT22;33786;48.690;9.562;2023-05-24T08:59:32;13.90;97.20
48019;DHT22;33786;48.690;9.562;2023-05-24T09:01:58;13.90;97.00
48019;DHT22;33786;48.690;9.562;2023-05-24T09:04:26;13.90;97.30
48019;DHT22;33786;48.690;9.562;2023-05-24T09:06:54;13.80;96.90
48019;DHT22;33786;48.690;9.562;2023-05-24T09:09:21;13.70;97.20
48019;DHT22;33786;48.690;9.562;2023-05-24T09:11:52;13.80;97.60
48019;DHT22;33786;48.690;9.562;2023-05-24T09:14:22;14.00;97.20
48019;DHT22;33786;48.690;9.562;2023-05-24T09:16:48;14.40;96.80
48019;DHT22;33786;48.690;9.562;2023-05-24T09:19:15;14.30;96.60
48019;DHT22;33786;48.690;9.562;2023-05-24T09:21:42;14.30;97.00
48019;DHT22;33786;48.690;9.562;2023-05-24T09:24:09;14.30;96.10
48019;DHT22;33786;48.690;9.562;2023-05-24T09:26:36;14.40;96.40
48019;DHT22;33786;48.690;9.562;2023-05-24T09:29:06;14.40;96.10
48019;DHT22;33786;48.690;9.562;2023-05-24T09:31:34;14.30;96.00
48019;DHT22;33786;48.690;9.562;2023-05-24T09:34:01;14.20;95.80
48019;DHT22;33786;48.690;9.562;2023-05-24T09:36:28;14.30;95.60
48019;DHT22;33786;48.690;9.562;2023-05-24T09:39:05;14.40;95.70
48019;DHT22;33786;48.690;9.562;2023-05-24T09:41:36;14.20;96.70
48019;DHT22;33786;48.690;9.562;2023-05-24T09:44:03;14.10;96.30
48019;DHT22;33786;48.690;9.562;2023-05-24T09:46:36;14.40;95.70
48019;DHT22;33786;48.690;9.562;2023-05-24T09:49:04;14.60;95.20
48019;DHT22;33786;48.690;9.562;2023-05-24T09:51:36;14.50;95.20
48019;DHT22;33786;48.690;9.562;2023-05-24T09:54:04;14.40;95.10
48019;DHT22;33786;48.690;9.562;2023-05-24T09:56:32;14.40;95.00
48019;DHT22;33786;48.690;9.562;2023-05-24T09:59:03;14.50;95.20
48019;DHT22;33786;48.690;9.562;2023-05-24T10:01:30;14.60;95.00
48019;DHT22;33786;48.690;9.562;2023-05-24T10:03:59;14.70;95.50
48019;DHT22;33786;48.690;9.562;2023-05-24T10:06:32;14.80;95.10
48019;DHT22;33786;48.690;9.562;2023-05-24T10:09:02;14.90;94.30
48019;DHT22;33786;48.690;9.562;2023-05-24T10:11:31;14.60;93.90
48019;DHT22;33786;48.690;9.562;2023-05-24T10:13:58;14.60;94.70
48019;DHT22;33786;48.690;9.562;2023-05-24T10:16:25;14.70;94.60
48019;DHT22;33786;48.690;9.562;2023-05-24T10:18:52;14.80;94.30
48019;DHT22;33786;48.690;9.562;2023-05-24T10:21:19;15.00;94.30
48019;DHT22;33786;48.690;9.562;2023-05-24T10:23:48;14.70;94.40
48019;DHT22;33786;48.690;9.562;2023-05-24T10:26:16;14.50;95.10
48019;DHT22;33786;48.690;9.562;2023-05-24T10:28:47;14.10;95.80
48019;DHT22;33786;48.690;9.562;2023-05-24T10:31:21;14.00;96.40
48019;DHT22;33786;48.690;9.562;2023-05-24T10:33:49;14.00;96.10
48019;DHT22;33786;48.690;9.562;2023-05-24T10:36:17;14.20;95.90
48019;DHT22;33786;48.690;9.562;2023-05-24T10:38:47;14.40;95.80
48019;DHT22;33786;48.690;9.562;2023-05-24T10:41:14;14.30;95.10
48019;DHT22;33786;48.690;9.562;2023-05-24T10:43:41;14.30;95.50
48019;DHT22;33786;48.690;9.562;2023-05-24T10:46:30;14.10;95.40
48019;DHT22;33786;48.690;9.562;2023-05-24T10:48:59;14.00;95.70
48019;DHT22;33786;48.690;9.562;2023-05-24T10:54:18;13.80;95.80
48019;DHT22;33786;48.690;9.562;2023-05-24T10:56:48;13.90;95.60
48019;DHT22;33786;48.690;9.562;2023-05-24T10:59:32;13.90;96.10
48019;DHT22;33786;48.690;9.562;2023-05-24T11:02:06;13.80;95.70
48019;DHT22;33786;48.690;9.562;2023-05-24T11:04:36;14.00;96.20
48019;DHT22;33786;48.690;9.562;2023-05-24T11:07:06;13.60;96.30
48019;DHT22;33786;48.690;9.562;2023-05-24T11:09:35;13.50;96.80
48019;DHT22;33786;48.690;9.562;2023-05-24T11:12:03;13.40;97.00
48019;DHT22;33786;48.690;9.562;2023-05-24T11:14:35;13.30;97.00
48019;DHT22;33786;48.690;9.562;2023-05-24T11:17:02;13.30;97.40
48019;DHT22;33786;48.690;9.562;2023-05-24T11:21:56;13.40;97.10
48019;DHT22;33786;48.690;9.562;2023-05-24T11:24:26;13.40;97.10
48019;DHT22;33786;48.690;9.562;2023-05-24T11:26:53;13.30;97.30
48019;DHT22;33786;48.690;9.562;2023-05-24T11:29:20;13.40;96.70
48019;DHT22;33786;48.690;9.562;2023-05-24T11:31:49;13.40;97.20
48019;DHT22;33786;48.690;9.562;2023-05-24T11:34:17;13.40;97.10
48019;DHT22;33786;48.690;9.562;2023-05-24T11:36:44;13.70;96.30
48019;DHT22;33786;48.690;9.562;2023-05-24T11:39:12;13.70;96.00
48019;DHT22;33786;48.690;9.562;2023-05-24T11:41:39;13.70;95.40
48019;DHT22;33786;48.690;9.562;2023-05-24T11:44:06;13.60;95.70
48019;DHT22;33786;48.690;9.562;2023-05-24T11:46:33;13.50;95.50
48019;DHT22;33786;48.690;9.562;2023-05-24T11:49:00;13.70;95.50
48019;DHT22;33786;48.690;9.562;2023-05-24T11:51:28;13.70;94.90
48019;DHT22;33786;48.690;9.562;2023-05-24T11:53:58;14.10;95.00
48019;DHT22;33786;48.690;9.562;2023-05-24T11:56:25;14.10;95.00
48019;DHT22;33786;48.690;9.562;2023-05-24T11:58:58;14.20;94.70
48019;DHT22;33786;48.690;9.562;2023-05-24T12:01:29;14.50;94.60
48019;DHT22;33786;48.690;9.562;2023-05-24T12:03:56;14.40;93.90
48019;DHT22;33786;48.690;9.562;2023-05-24T12:06:23;14.50;94.10
48019;DHT22;33786;48.690;9.562;2023-05-24T12:08:49;14.70;94.60
48019;DHT22;33786;48.690;9.562;2023-05-24T12:11:16;14.90;92.20
48019;DHT22;33786;48.690;9.562;2023-05-24T12:13:43;14.80;93.40
48019;DHT22;33786;48.690;9.562;2023-05-24T12:16:10;15.50;93.90
48019;DHT22;33786;48.690;9.562;2023-05-24T12:18:38;16.20;92.60
48019;DHT22;33786;48.690;9.562;2023-05-24T12:21:16;16.70;91.30
48019;DHT22;33786;48.690;9.562;2023-05-24T12:23:46;17.10;91.00
48019;DHT22;33786;48.690;9.562;2023-05-24T12:26:13;17.30;90.70
48019;DHT22;33786;48.690;9.562;2023-05-24T12:28:44;17.20;89.10
48019;DHT22;33786;48.690;9.562;2023-05-24T12:31:10;16.50;90.50
48019;DHT22;33786;48.690;9.562;2023-05-24T12:33:37;16.20;91.00
48019;DHT22;33786;48.690;9.562;2023-05-24T12:36:05;16.40;90.60
48019;DHT22;33786;48.690;9.562;2023-05-24T12:38:32;16.40;90.60
48019;DHT22;33786;48.690;9.562;2023-05-24T12:40:59;17.10;90.40
48019;DHT22;33786;48.690;9.562;2023-05-24T12:43:39;17.40;90.00
48019;DHT22;33786;48.690;9.562;2023-05-24T12:46:06;17.40;90.00
48019;DHT22;33786;48.690;9.562;2023-05-24T12:48:33;18.00;89.60
48019;DHT22;33786;48.690;9.562;2023-05-24T12:51:00;18.10;89.20
48019;DHT22;33786;48.690;9.562;2023-05-24T12:53:28;18.60;88.10
48019;DHT22;33786;48.690;9.562;2023-05-24T12:55:55;18.70;84.20
48019;DHT22;33786;48.690;9.562;2023-05-24T12:58:22;18.60;87.20
48019;DHT22;33786;48.690;9.562;2023-05-24T13:00:49;18.90;87.00
48019;DHT22;33786;48.690;9.562;2023-05-24T13:03:17;19.10;84.70
48019;DHT22;33786;48.690;9.562;2023-05-24T13:05:44;18.50;85.20
48019;DHT22;33786;48.690;9.562;2023-05-24T13:08:11;17.90;83.20
48019;DHT22;33786;48.690;9.562;2023-05-24T13:10:39;16.80;86.40
48019;DHT22;33786;48.690;9.562;2023-05-24T13:13:06;17.00;87.20
48019;DHT22;33786;48.690;9.562;2023-05-24T13:15:33;17.10;88.90
48019;DHT22;33786;48.690;9.562;2023-05-24T13:18:00;16.90;85.80
48019;DHT22;33786;48.690;9.562;2023-05-24T13:20:26;17.30;85.80
48019;DHT22;33786;48.690;9.562;2023-05-24T13:22:53;17.30;85.40
48019;DHT22;33786;48.690;9.562;2023-05-24T13:25:20;17.30;86.60
48019;DHT22;33786;48.690;9.562;2023-05-24T13:27:48;17.10;86.30
48019;DHT22;33786;48.690;9.562;2023-05-24T13:30:14;17.00;87.30
48019;DHT22;33786;48.690;9.562;2023-05-24T13:32:43;16.70;87.70
48019;DHT22;33786;48.690;9.562;2023-05-24T13:35:10;16.50;88.70
48019;DHT22;33786;48.690;9.562;2023-05-24T13:37:36;16.70;89.00
48019;DHT22;33786;48.690;9.562;2023-05-24T13:40:03;17.10;89.40
48019;DHT22;33786;48.690;9.562;2023-05-24T13:42:31;17.10;85.50
48019;DHT22;33786;48.690;9.562;2023-05-24T13:44:58;17.50;84.80
48019;DHT22;33786;48.690;9.562;2023-05-24T13:47:25;18.00;86.60
48019;DHT22;33786;48.690;9.562;2023-05-24T13:50:05;18.10;86.60
48019;DHT22;33786;48.690;9.562;2023-05-24T13:52:31;18.20;86.30
48019;DHT22;33786;48.690;9.562;2023-05-24T13:54:58;18.20;84.90
48019;DHT22;33786;48.690;9.562;2023-05-24T13:57:25;18.50;83.00
48019;DHT22;33786;48.690;9.562;2023-05-24T20:40:59;10.80;96.20
48019;DHT22;33786;48.690;9.562;2023-05-24T20:43:28;10.70;96.60
48019;DHT22;33786;48.690;9.562;2023-05-24T20:45:55;10.60;97.30
48019;DHT22;33786;48.690;9.562;2023-05-24T20:48:22;10.70;98.00
48019;DHT22;33786;48.690;9.562;2023-05-24T20:50:50;10.60;98.90
48019;DHT22;33786;48.690;9.562;2023-05-24T20:53:17;10.60;99.60
48019;DHT22;33786;48.690;9.562;2023-05-24T20:55:44;10.60;99.70
48019;DHT22;33786;48.690;9.562;2023-05-24T20:58:11;10.50;99.90
48019;DHT22;33786;48.690;9.562;2023-05-24T21:00:38;10.60;99.90
48019;DHT22;33786;48.690;9.562;2023-05-24T21:03:05;10.60;99.90
48019;DHT22;33786;48.690;9.562;2023-05-24T21:05:32;10.60;99.90
48019;DHT22;33786;48.690;9.562;2023-05-24T21:08:02;10.60;99.90
48019;DHT22;33786;48.690;9.562;2023-05-24T21:10:29;10.70;99.90
48019;DHT22;33786;48.690;9.562;2023-05-24T21:12:55;10.70;99.90
48019;DHT22;33786;48.690;9.562;2023-05-24T21:15:22;10.70;99.90
48019;DHT22;33786;48.690;9.562;2023-05-24T21:17:49;10.80;99.90
48019;DHT22;33786;48.690;9.562;2023-05-24T21:20:16;10.80;99.90
48019;DHT22;33786;48.690;9.562;2023-05-24T21:22:42;10.80;99.90
48019;DHT22;33786;48.690;9.562;2023-05-24T21:25:11;10.80;99.90
48019;DHT22;33786;48.690;9.562;2023-05-24T21:27:38;10.90;99.90
48019;DHT22;33786;48.690;9.562;2023-05-24T21:30:05;11.00;99.90
48019;DHT22;33786;48.690;9.562;2023-05-24T21:32:32;11.00;99.40
48019;DHT22;33786;48.690;9.562;2023-05-24T21:34:59;11.10;99.90
48019;DHT22;33786;48.690;9.562;2023-05-24T21:37:25;11.10;99.90
48019;DHT22;33786;48.690;9.562;2023-05-24T21:39:52;11.10;99.90
48019;DHT22;33786;48.690;9.562;2023-05-24T21:42:19;11.20;99.90
48019;DHT22;33786;48.690;9.562;2023-05-24T21:44:45;11.20;99.90
48019;DHT22;33786;48.690;9.562;2023-05-24T21:47:12;11.20;99.90
48019;DHT22;33786;48.690;9.562;2023-05-24T21:49:39;11.10;99.90
48019;DHT22;33786;48.690;9.562;2023-05-24T21:52:06;11.20;99.90
48019;DHT22;33786;48.690;9.562;2023-05-24T21:54:32;11.20;99.90
48019;DHT22;33786;48.690;9.562;2023-05-24T21:56:59;11.20;99.90
48019;DHT22;33786;48.690;9.562;2023-05-24T21:59:27;11.20;97.90
48019;DHT22;33786;48.690;9.562;2023-05-24T22:01:53;11.20;96.00
48019;DHT22;33786;48.690;9.562;2023-05-24T22:04:20;11.20;95.50
48019;DHT22;33786;48.690;9.562;2023-05-24T22:06:47;11.20;94.90
48019;DHT22;33786;48.690;9.562;2023-05-24T22:09:14;11.30;93.40
48019;DHT22;33786;48.690;9.562;2023-05-24T22:11:41;11.40;93.50
48019;DHT22;33786;48.690;9.562;2023-05-24T22:14:07;11.40;93.20
48019;DHT22;33786;48.690;9.562;2023-05-24T22:16:35;11.40;92.20
48019;DHT22;33786;48.690;9.562;2023-05-24T22:19:02;11.40;91.90
48019;DHT22;33786;48.690;9.562;2023-05-24T22:21:36;11.40;92.20
48019;DHT22;33786;48.690;9.562;2023-05-24T22:24:10;11.40;92.20
48019;DHT22;33786;48.690;9.562;2023-05-24T22:26:38;11.40;92.10
48019;DHT22;33786;48.690;9.562;2023-05-24T22:29:07;11.40;92.00
48019;DHT22;33786;48.690;9.562;2023-05-24T22:31:33;11.40;91.80